N410HA -KASE
Flight info
| Callsign | N410HA |
|---|---|
| Flight time | N/A |
| Altitude | VFR |
| Route | |
| Aircraft | E135/M-DOV/C |
Departure
| Time | N/A |
|---|---|
| Airport | - |
Arrival
| Time | 2026-04-22 00:11 |
|---|---|
| Airport | Aspen-Pitkin County Airport (Sardy Field) (KASE) |
| Time | Latitude | Longitude | Altitude | Speed | Heading |
|---|---|---|---|---|---|
| 2026-04-22 00:03 | 39.09497 | -106.55868 | 13626 ft | 116 kts | 302° |
| 2026-04-22 00:03 | 39.09907 | -106.56781 | 13622 ft | 124 kts | 297° |
| 2026-04-22 00:03 | 39.10315 | -106.57781 | 13639 ft | 125 kts | 295° |
| 2026-04-22 00:03 | 39.10705 | -106.58779 | 13637 ft | 126 kts | 295° |
| 2026-04-22 00:04 | 39.11079 | -106.59811 | 13620 ft | 127 kts | 288° |
| 2026-04-22 00:04 | 39.11309 | -106.60944 | 13465 ft | 134 kts | 291° |
| 2026-04-22 00:04 | 39.11786 | -106.61985 | 13330 ft | 136 kts | 301° |
| 2026-04-22 00:04 | 39.12209 | -106.63086 | 13172 ft | 136 kts | 295° |
| 2026-04-22 00:05 | 39.12428 | -106.64266 | 13002 ft | 135 kts | 278° |
| 2026-04-22 00:05 | 39.12454 | -106.65456 | 12944 ft | 127 kts | 271° |
| 2026-04-22 00:05 | 39.12429 | -106.66608 | 12802 ft | 131 kts | 263° |
| 2026-04-22 00:05 | 39.12226 | -106.67765 | 12639 ft | 134 kts | 251° |
| 2026-04-22 00:06 | 39.11865 | -106.68879 | 12521 ft | 131 kts | 250° |
| 2026-04-22 00:06 | 39.11583 | -106.69971 | 12532 ft | 123 kts | 255° |
| 2026-04-22 00:06 | 39.11352 | -106.71085 | 12530 ft | 123 kts | 257° |
| 2026-04-22 00:06 | 39.11318 | -106.72241 | 12528 ft | 123 kts | 269° |
| 2026-04-22 00:07 | 39.11506 | -106.73357 | 12490 ft | 125 kts | 292° |
| 2026-04-22 00:07 | 39.11947 | -106.74387 | 12484 ft | 126 kts | 300° |
| 2026-04-22 00:07 | 39.12426 | -106.75381 | 12476 ft | 126 kts | 304° |
| 2026-04-22 00:07 | 39.12998 | -106.76266 | 12476 ft | 126 kts | 310° |
| 2026-04-22 00:08 | 39.13661 | -106.77056 | 12469 ft | 126 kts | 316° |
| 2026-04-22 00:08 | 39.14327 | -106.77836 | 12400 ft | 130 kts | 316° |
| 2026-04-22 00:08 | 39.15011 | -106.78645 | 12299 ft | 132 kts | 316° |
| 2026-04-22 00:08 | 39.15693 | -106.79460 | 12189 ft | 134 kts | 316° |
| 2026-04-22 00:09 | 39.16475 | -106.80149 | 12034 ft | 137 kts | 326° |
| 2026-04-22 00:09 | 39.17284 | -106.80823 | 11881 ft | 138 kts | 327° |
| 2026-04-22 00:09 | 39.18089 | -106.81495 | 11733 ft | 138 kts | 326° |
| 2026-04-22 00:09 | 39.18887 | -106.82182 | 11249 ft | 139 kts | 325° |
| 2026-04-22 00:10 | 39.19643 | -106.82915 | 10710 ft | 135 kts | 328° |
| 2026-04-22 00:10 | 39.20381 | -106.83568 | 10242 ft | 128 kts | 328° |
| 2026-04-22 00:10 | 39.21010 | -106.84328 | 9586 ft | 121 kts | 302° |
| 2026-04-22 00:10 | 39.21406 | -106.85090 | 9376 ft | 84 kts | 309° |
| 2026-04-22 00:11 | 39.21666 | -106.85529 | 9332 ft | 45 kts | 311° |
| 2026-04-22 00:11 | 39.21766 | -106.85841 | 9136 ft | 34 kts | 306° |
| 2026-04-22 00:11 | 39.21945 | -106.86102 | 8940 ft | 35 kts | 331° |
| 2026-04-22 00:11 | 39.21962 | -106.86138 | 8705 ft | 11 kts | 323° |
| 2026-04-22 00:12 | 39.21984 | -106.86090 | 8461 ft | 10 kts | 314° |
| 2026-04-22 00:12 | 39.21946 | -106.86216 | 8370 ft | 13 kts | 301° |
| 2026-04-22 00:12 | 39.21941 | -106.86244 | 8208 ft | 19 kts | 307° |
| 2026-04-22 00:12 | 39.22004 | -106.86410 | 8070 ft | 15 kts | 319° |
| 2026-04-22 00:13 | 39.22085 | -106.86491 | 7978 ft | 18 kts | 325° |
| 2026-04-22 00:13 | 39.22135 | -106.86518 | 7867 ft | 7 kts | 319° |
| 2026-04-22 00:13 | 39.22124 | -106.86536 | 7817 ft | 1 kts | 307° |
| 2026-04-22 00:13 | 39.22123 | -106.86536 | 7815 ft | 0 kts | 275° |